createdAt,value
2018-04-10T00:02:09.702Z,22.35
2018-04-10T00:04:35.925Z,16.35
2018-04-10T00:07:02.110Z,20.10
2018-04-10T00:09:28.317Z,15.52
2018-04-10T00:11:54.717Z,18.35
2018-04-10T00:14:21.211Z,15.80
2018-04-10T00:16:47.421Z,20.75
2018-04-10T00:19:14.693Z,20.10
2018-04-10T00:21:40.866Z,23.62
2018-04-10T00:24:08.295Z,16.27
2018-04-10T00:26:34.474Z,18.73
2018-04-10T00:29:00.665Z,16.12
2018-04-10T00:31:26.846Z,17.17
2018-04-10T00:33:54.114Z,15.43
2018-04-10T00:36:20.286Z,17.45
2018-04-10T00:38:46.466Z,18.23
2018-04-10T00:41:12.680Z,14.77
2018-04-10T00:43:38.852Z,14.48
2018-04-10T00:46:05.066Z,17.05
2018-04-10T00:48:32.371Z,20.15
2018-04-10T00:50:58.540Z,19.33
2018-04-10T00:53:35.866Z,16.55
2018-04-10T00:56:02.046Z,17.77
2018-04-10T00:58:28.229Z,21.85
2018-04-10T01:00:54.438Z,17.80
2018-04-10T01:03:20.606Z,25.60
2018-04-10T01:05:46.787Z,20.43
2018-04-10T01:08:12.973Z,21.92
2018-04-10T01:10:39.162Z,19.53
2018-04-10T01:13:06.447Z,18.62
2018-04-10T01:15:32.618Z,22.37
2018-04-10T01:17:59.889Z,22.90
2018-04-10T01:20:26.057Z,20.92
2018-04-10T01:22:52.466Z,17.48
2018-04-10T01:25:18.673Z,18.42
2018-04-10T01:27:44.842Z,17.37
2018-04-10T01:30:11.037Z,21.30
2018-04-10T01:32:37.197Z,22.83
2018-04-10T01:35:03.378Z,15.00
2018-04-10T01:37:31.994Z,17.98
2018-04-10T01:40:00.413Z,19.10
2018-04-10T01:42:28.839Z,22.50
2018-04-10T01:44:57.039Z,23.93
2018-04-10T01:47:23.254Z,19.08
2018-04-10T01:49:49.414Z,18.80
2018-04-10T01:52:15.599Z,25.23
2018-04-10T01:54:41.761Z,20.12
2018-04-10T01:57:09.057Z,17.80
2018-04-10T01:59:35.222Z,18.13
2018-04-10T02:02:02.549Z,21.07
2018-04-10T02:04:29.837Z,18.27
2018-04-10T02:06:56.031Z,17.95
2018-04-10T02:09:40.701Z,14.95
2018-04-10T02:20:59.415Z,18.73
2018-04-10T02:23:44.245Z,18.70
2018-04-10T02:26:10.540Z,17.40
2018-04-10T02:28:36.858Z,18.45
2018-04-10T02:31:03.133Z,17.83
2018-04-10T02:33:29.443Z,13.80
2018-04-10T02:35:55.730Z,18.63
2018-04-10T02:38:22.051Z,20.65
2018-04-10T02:40:48.339Z,21.23
2018-04-10T02:43:14.646Z,16.23
2018-04-10T02:45:40.946Z,21.43
2018-04-10T02:48:07.253Z,19.93
2018-04-10T02:50:33.537Z,17.37
2018-04-10T02:52:59.857Z,18.57
2018-04-10T02:55:26.188Z,18.17
2018-04-10T02:57:52.478Z,18.30
2018-04-10T03:00:18.782Z,18.73
2018-04-10T03:02:45.093Z,18.73
2018-04-10T03:05:12.506Z,17.80
2018-04-10T03:07:38.777Z,18.00
2018-04-10T03:10:05.138Z,18.40
2018-04-10T03:12:31.421Z,16.43
2018-04-10T03:14:57.726Z,17.97
2018-04-10T03:17:24.067Z,18.33
2018-04-10T03:19:50.378Z,16.10
2018-04-10T03:22:16.682Z,24.37
2018-04-10T03:24:42.977Z,16.50
2018-04-10T03:27:09.335Z,18.30
2018-04-10T03:29:35.702Z,18.73
2018-04-10T03:32:03.090Z,20.27
2018-04-10T03:34:29.396Z,24.77
2018-04-10T03:36:55.690Z,23.87
2018-04-10T03:39:21.965Z,15.70
2018-04-10T03:41:48.264Z,19.83
2018-04-10T03:44:14.573Z,16.67
2018-04-10T03:46:40.898Z,19.63
2018-04-10T03:49:07.201Z,20.90
2018-04-10T03:51:33.510Z,16.93
2018-04-10T03:53:59.771Z,19.93
2018-04-10T03:56:27.162Z,18.03
2018-04-10T03:58:53.421Z,23.50
2018-04-10T04:01:19.590Z,19.73
2018-04-10T04:03:45.737Z,15.77
2018-04-10T04:06:11.894Z,17.93
2018-04-10T04:08:38.057Z,22.83
2018-04-10T04:11:04.237Z,26.87
2018-04-10T04:13:30.517Z,21.10
2018-04-10T04:15:56.734Z,23.37
2018-04-10T04:18:35.322Z,24.97
2018-04-10T04:21:13.689Z,32.17
2018-04-10T04:23:39.889Z,23.87
2018-04-10T04:26:06.120Z,28.53
2018-04-10T04:28:32.279Z,22.70
2018-04-10T04:30:58.442Z,22.90
2018-04-10T04:33:24.630Z,19.73
2018-04-10T04:35:50.799Z,22.53
2018-04-10T04:38:18.118Z,19.60
2018-04-10T04:40:44.306Z,22.40
2018-04-10T04:43:10.501Z,19.37
2018-04-10T04:45:36.724Z,18.87
2018-04-10T04:48:02.910Z,18.43
2018-04-10T04:50:29.091Z,17.23
2018-04-10T04:52:55.263Z,24.47
2018-04-10T04:55:21.437Z,20.00
2018-04-10T04:57:48.332Z,25.53
2018-04-10T05:00:14.501Z,24.73
2018-04-10T05:02:43.906Z,17.03
2018-04-10T05:05:10.095Z,19.03
2018-04-10T05:07:36.294Z,24.63
2018-04-10T05:10:04.237Z,16.93
2018-04-10T05:12:32.011Z,20.40
2018-04-10T05:14:58.514Z,19.07
2018-04-10T05:17:25.950Z,26.37
2018-04-10T05:19:52.565Z,18.07
2018-04-10T05:22:19.865Z,19.23
2018-04-10T05:24:46.271Z,18.17
2018-04-10T05:27:12.437Z,17.03
2018-04-10T05:29:39.829Z,16.87
2018-04-10T05:32:05.985Z,16.33
2018-04-10T05:34:32.173Z,19.93
2018-04-10T05:36:58.355Z,19.87
2018-04-10T05:39:24.508Z,17.07
2018-04-10T05:41:50.775Z,17.80
2018-04-10T05:44:16.951Z,21.47
2018-04-10T05:46:44.238Z,15.03
2018-04-10T05:49:10.407Z,17.17
2018-04-10T05:51:36.596Z,19.27
2018-04-10T05:54:02.831Z,16.67
2018-04-10T05:56:29.279Z,23.30
2018-04-10T05:58:55.446Z,20.87
2018-04-10T06:01:21.758Z,17.53
2018-04-10T06:03:49.086Z,17.20
2018-04-10T06:06:15.825Z,21.83
2018-04-10T06:08:42.043Z,23.53
2018-04-10T06:11:08.220Z,17.67
2018-04-10T06:13:34.457Z,15.37
2018-04-10T06:16:00.671Z,19.33
2018-04-10T06:18:26.971Z,23.58
2018-04-10T06:20:53.175Z,21.53
2018-04-10T06:23:19.357Z,20.27
2018-04-10T06:25:45.517Z,20.13
2018-04-10T06:28:11.701Z,16.07
2018-04-10T06:30:37.918Z,16.10
2018-04-10T06:33:05.235Z,17.43
2018-04-10T06:35:31.398Z,20.48
2018-04-10T06:37:57.582Z,19.00
2018-04-10T06:40:24.865Z,18.42
2018-04-10T06:42:51.042Z,18.90
2018-04-10T06:45:17.199Z,21.25
2018-04-10T06:47:43.354Z,20.37
2018-04-10T06:50:10.274Z,21.27
2018-04-10T06:52:36.629Z,20.50
2018-04-10T06:55:03.019Z,21.63
2018-04-10T06:57:30.472Z,22.60
2018-04-10T06:59:56.721Z,23.10
2018-04-10T07:02:22.942Z,21.67
2018-04-10T07:04:49.130Z,20.33
2018-04-10T07:07:15.311Z,20.20
2018-04-10T07:09:42.597Z,21.37
2018-04-10T07:12:08.747Z,21.67
2018-04-10T07:14:34.936Z,20.37
2018-04-10T07:17:01.118Z,14.27
2018-04-10T07:19:27.295Z,30.98
2018-04-10T07:21:54.570Z,21.42
2018-04-10T07:24:20.730Z,29.80
2018-04-10T07:26:46.913Z,27.17
2018-04-10T07:29:13.079Z,30.25
2018-04-10T07:31:40.386Z,27.73
2018-04-10T07:34:07.295Z,23.65
2018-04-10T07:36:33.497Z,24.83
2018-04-10T07:38:59.661Z,29.98
2018-04-10T07:41:25.854Z,29.67
2018-04-10T07:43:52.034Z,26.50
2018-04-10T07:46:18.227Z,28.17
2018-04-10T07:48:44.661Z,26.85
2018-04-10T07:51:10.846Z,27.15
2018-04-10T07:53:38.138Z,31.65
2018-04-10T07:56:04.327Z,34.35
2018-04-10T07:58:30.643Z,35.75
2018-04-10T08:00:56.818Z,29.15
2018-04-10T08:03:24.122Z,41.67
2018-04-10T08:05:50.293Z,47.22
2018-04-10T08:08:16.486Z,29.33
2018-04-10T08:10:43.760Z,32.13
2018-04-10T08:13:09.987Z,37.17
2018-04-10T08:15:36.218Z,37.22
2018-04-10T08:18:02.418Z,35.30
2018-04-10T08:20:28.588Z,40.58
2018-04-10T08:22:55.545Z,39.17
2018-04-10T08:25:21.734Z,26.30
2018-04-10T08:27:47.918Z,34.03
2018-04-10T08:30:14.074Z,28.52
2018-04-10T08:32:40.270Z,34.60
2018-04-10T08:35:06.440Z,25.62
2018-04-10T08:37:32.609Z,36.88
2018-04-10T08:39:58.789Z,28.20
2018-04-10T08:42:26.106Z,27.35
2018-04-10T08:44:52.298Z,27.42
2018-04-10T08:47:18.507Z,25.12
2018-04-10T08:49:44.705Z,28.40
2018-04-10T08:52:10.870Z,31.95
2018-04-10T08:54:37.062Z,30.67
2018-04-10T08:57:03.247Z,23.42
2018-04-10T08:59:29.474Z,22.33
2018-04-10T09:01:55.662Z,27.02
2018-04-10T09:04:21.849Z,26.92
2018-04-10T09:06:49.119Z,26.67
2018-04-10T09:09:15.332Z,29.00
2018-04-10T09:11:41.737Z,34.80
2018-04-10T09:14:07.921Z,29.10
2018-04-10T09:16:34.178Z,33.53
2018-04-10T09:19:00.353Z,30.30
2018-04-10T09:21:26.559Z,33.10
2018-04-10T09:23:52.815Z,27.20
2018-04-10T09:26:19.004Z,34.33
2018-04-10T09:28:46.287Z,27.62
2018-04-10T09:31:12.466Z,30.55
2018-04-10T09:33:38.634Z,28.45
2018-04-10T09:36:04.839Z,28.55
2018-04-10T09:38:31.040Z,22.10
2018-04-10T09:40:57.234Z,31.58
2018-04-10T09:43:23.443Z,39.83
2018-04-10T09:45:49.619Z,30.45
2018-04-10T09:48:15.785Z,27.77
2018-04-10T09:50:41.933Z,30.10
2018-04-10T09:53:08.123Z,29.23
2018-04-10T09:55:34.310Z,23.02
2018-04-10T09:58:00.494Z,20.40
2018-04-10T10:00:33.915Z,21.12
2018-04-10T10:03:00.098Z,23.20
2018-04-10T10:05:27.393Z,28.80
2018-04-10T10:07:54.397Z,26.67
2018-04-10T10:10:20.563Z,20.62
2018-04-10T10:12:46.807Z,16.02
2018-04-10T10:15:12.935Z,17.12
2018-04-10T10:17:39.107Z,12.77
2018-04-10T10:20:06.470Z,14.25
2018-04-10T10:22:32.646Z,12.63
2018-04-10T10:24:58.907Z,13.60
2018-04-10T10:27:25.114Z,10.88
2018-04-10T10:29:51.299Z,9.75
2018-04-10T10:32:17.578Z,13.38
2018-04-10T10:34:43.854Z,7.22
2018-04-10T10:37:10.135Z,6.85
2018-04-10T10:39:36.295Z,7.55
2018-04-10T10:42:02.589Z,7.47
2018-04-10T10:44:28.853Z,7.18
2018-04-10T10:46:55.050Z,11.93
2018-04-10T10:49:21.242Z,5.25
2018-04-10T10:51:47.426Z,9.23
2018-04-10T10:54:14.331Z,2.60
2018-04-10T10:56:40.558Z,4.35
2018-04-10T10:59:06.813Z,2.12
2018-04-10T11:01:33.050Z,5.75
2018-04-10T11:03:59.238Z,2.58
2018-04-10T11:06:25.500Z,1.73
2018-04-10T11:08:51.678Z,1.92
2018-04-10T11:11:17.878Z,2.40
2018-04-10T11:13:44.042Z,3.33
2018-04-10T11:16:10.229Z,2.53
2018-04-10T11:18:36.457Z,2.10
2018-04-10T11:21:02.644Z,1.85
2018-04-10T11:23:28.879Z,3.03
2018-04-10T11:25:55.062Z,7.25
2018-04-10T11:28:21.738Z,2.08
2018-04-10T11:30:47.945Z,4.87
2018-04-10T11:33:14.137Z,3.60
2018-04-10T11:35:40.294Z,2.55
2018-04-10T11:38:07.226Z,6.30
2018-04-10T11:40:33.431Z,2.35
2018-04-10T11:43:00.390Z,1.15
2018-04-10T11:45:26.660Z,2.00
2018-04-10T11:47:52.856Z,1.20
2018-04-10T11:50:19.033Z,0.73
2018-04-10T11:52:46.054Z,1.35
2018-04-10T11:55:12.255Z,2.00
2018-04-10T11:57:38.449Z,0.47
2018-04-10T12:00:05.422Z,1.27
2018-04-10T12:02:32.291Z,0.88
2018-04-10T12:04:59.240Z,0.57
2018-04-10T12:07:26.162Z,2.28
2018-04-10T12:09:52.402Z,2.30
2018-04-10T12:12:18.569Z,2.60
2018-04-10T12:14:45.486Z,5.10
2018-04-10T12:17:11.642Z,3.35
2018-04-10T12:19:38.262Z,3.40
2018-04-10T12:22:04.808Z,1.95
2018-04-10T12:24:31.114Z,1.15
2018-04-10T12:26:58.003Z,1.17
2018-04-10T12:29:24.914Z,0.57
2018-04-10T12:31:51.190Z,3.00
2018-04-10T12:34:17.354Z,0.62
2018-04-10T12:36:44.403Z,1.27
2018-04-10T12:39:10.598Z,0.85
2018-04-10T12:41:37.538Z,1.17
2018-04-10T12:44:04.433Z,3.45
2018-04-10T12:46:30.614Z,0.73
2018-04-10T12:48:56.774Z,2.37
2018-04-10T12:51:24.515Z,1.85
2018-04-10T12:53:50.805Z,5.35
2018-04-10T12:56:17.061Z,2.83
2018-04-10T12:58:43.361Z,3.08
2018-04-10T13:01:09.582Z,0.57
2018-04-10T13:03:35.813Z,0.60
2018-04-10T13:06:02.207Z,1.67
2018-04-10T13:08:28.482Z,0.95
2018-04-10T13:10:54.676Z,1.75
2018-04-10T13:13:20.882Z,1.25
2018-04-10T13:15:47.071Z,0.75
2018-04-10T13:18:13.974Z,1.75
2018-04-10T13:20:40.161Z,5.30
2018-04-10T13:23:06.318Z,4.47
2018-04-10T13:25:32.494Z,2.47
2018-04-10T13:27:58.668Z,0.95
2018-04-10T13:30:24.866Z,1.23
2018-04-10T13:32:51.031Z,3.00
2018-04-10T13:35:17.258Z,1.17
2018-04-10T13:37:43.478Z,0.82
2018-04-10T13:40:09.658Z,0.50
2018-04-10T13:42:35.898Z,2.55
2018-04-10T13:45:02.067Z,0.45
2018-04-10T13:47:29.003Z,3.80
2018-04-10T13:49:56.068Z,3.15
2018-04-10T13:52:22.336Z,1.85
2018-04-10T13:54:48.494Z,2.37
2018-04-10T13:57:14.701Z,5.78
2018-04-10T13:59:40.933Z,0.85
2018-04-10T14:02:07.139Z,2.22
2018-04-10T14:04:33.326Z,2.17
2018-04-10T14:06:59.538Z,0.70
2018-04-10T14:09:25.726Z,3.60
2018-04-10T14:11:51.863Z,2.65
2018-04-10T14:14:18.057Z,0.82
2018-04-10T14:16:44.274Z,2.47
2018-04-10T14:19:11.190Z,1.30
2018-04-10T14:21:37.386Z,1.95
2018-04-10T14:24:03.638Z,3.97
2018-04-10T14:26:30.533Z,0.85
2018-04-10T14:28:56.713Z,2.70
2018-04-10T14:31:22.886Z,4.40
2018-04-10T14:33:49.818Z,4.22
2018-04-10T14:36:16.733Z,1.25
2018-04-10T14:38:42.921Z,4.85
2018-04-10T14:41:09.335Z,1.30
2018-04-10T14:43:35.634Z,2.85
2018-04-10T14:46:01.866Z,1.08
2018-04-10T14:48:28.062Z,2.75
2018-04-10T14:50:54.274Z,3.42
2018-04-10T14:53:20.658Z,2.85
2018-04-10T14:55:47.679Z,6.85
2018-04-10T14:58:14.629Z,4.30
2018-04-10T15:00:40.954Z,1.17
2018-04-10T15:03:09.539Z,1.35
2018-04-10T15:05:35.950Z,2.70
2018-04-10T15:08:02.168Z,2.15
2018-04-10T15:10:28.322Z,2.55
2018-04-10T15:12:54.586Z,5.05
2018-04-10T15:15:20.753Z,3.42
2018-04-10T15:17:47.675Z,3.83
2018-04-10T15:20:13.994Z,3.50
2018-04-10T15:22:40.213Z,10.10
2018-04-10T15:25:07.078Z,1.25
2018-04-10T15:27:33.657Z,2.87
2018-04-10T15:30:00.630Z,5.28
2018-04-10T15:32:26.803Z,1.98
2018-04-10T15:34:52.985Z,3.80
2018-04-10T15:37:19.191Z,4.18
2018-04-10T15:39:45.362Z,3.53
2018-04-10T15:42:12.765Z,3.28
2018-04-10T15:44:39.018Z,0.88
2018-04-10T15:47:07.005Z,0.90
2018-04-10T15:49:33.942Z,1.90
2018-04-10T15:52:00.170Z,3.85
2018-04-10T15:54:26.358Z,3.50
2018-04-10T15:56:52.526Z,2.83
2018-04-10T15:59:18.710Z,2.67
2018-04-10T16:01:44.934Z,6.68
2018-04-10T16:04:11.102Z,3.12
2018-04-10T16:06:37.323Z,1.85
2018-04-10T16:09:03.542Z,3.45
2018-04-10T16:11:29.750Z,3.87
2018-04-10T16:13:55.955Z,1.73
2018-04-10T16:16:23.258Z,3.10
2018-04-10T16:18:49.445Z,4.30
2018-04-10T16:21:15.674Z,1.23
2018-04-10T16:23:41.886Z,3.17
2018-04-10T16:26:08.081Z,4.05
2018-04-10T16:28:34.302Z,2.60
2018-04-10T16:31:00.471Z,4.25
2018-04-10T16:33:28.155Z,2.92
2018-04-10T16:35:54.398Z,4.05
2018-04-10T16:38:20.615Z,2.45
2018-04-10T16:40:46.910Z,3.90
2018-04-10T16:43:13.383Z,4.82
2018-04-10T16:45:39.692Z,8.15
2018-04-10T16:48:06.957Z,3.92
2018-04-10T16:50:33.226Z,8.80
2018-04-10T16:52:59.397Z,6.40
2018-04-10T16:55:25.578Z,2.42
2018-04-10T16:57:52.965Z,3.72
2018-04-10T17:00:20.390Z,4.30
2018-04-10T17:02:46.563Z,2.00
2018-04-10T17:05:13.890Z,4.93
2018-04-10T17:07:40.889Z,4.37
2018-04-10T17:10:07.109Z,14.68
2018-04-10T17:12:33.367Z,7.05
2018-04-10T17:14:59.540Z,5.30
2018-04-10T17:17:25.721Z,7.18
2018-04-10T17:19:51.936Z,3.58
2018-04-10T17:22:18.292Z,4.95
2018-04-10T17:24:44.482Z,4.18
2018-04-10T17:27:10.718Z,5.28
2018-04-10T17:29:38.896Z,3.92
2018-04-10T17:32:06.334Z,2.65
2018-04-10T17:34:32.648Z,3.80
2018-04-10T17:36:59.126Z,7.50
2018-04-10T17:39:25.372Z,5.87
2018-04-10T17:41:52.446Z,6.25
2018-04-10T17:44:20.433Z,6.60
2018-04-10T17:46:46.669Z,6.20
2018-04-10T17:49:13.750Z,4.45
2018-04-10T17:51:40.148Z,6.65
2018-04-10T17:54:06.637Z,8.52
2018-04-10T17:56:32.858Z,1.27
2018-04-10T17:58:59.081Z,11.50
2018-04-10T18:01:26.556Z,5.45
2018-04-10T18:03:53.055Z,2.53
2018-04-10T18:06:20.397Z,2.00
2018-04-10T18:08:47.825Z,4.37
2018-04-10T18:11:15.186Z,3.20
2018-04-10T18:13:42.571Z,3.20
2018-04-10T18:16:09.027Z,1.77
2018-04-10T18:18:36.064Z,3.20
2018-04-10T18:21:02.206Z,2.33
2018-04-10T18:23:28.490Z,0.77
2018-04-10T18:25:54.703Z,1.40
2018-04-10T18:28:21.925Z,2.13
2018-04-10T18:30:48.094Z,2.40
2018-04-10T18:33:14.279Z,2.63
2018-04-10T18:35:40.724Z,7.53
2018-04-10T18:38:07.028Z,2.73
2018-04-10T18:40:34.631Z,3.13
2018-04-10T18:43:00.838Z,1.90
2018-04-10T18:45:27.078Z,1.13
2018-04-10T18:47:53.349Z,0.73
2018-04-10T18:50:19.541Z,1.90
2018-04-10T18:52:45.872Z,1.87
2018-04-10T18:55:12.083Z,2.03
2018-04-10T18:57:38.275Z,3.00
2018-04-10T19:00:04.489Z,0.40
2018-04-10T19:02:30.726Z,1.80
2018-04-10T19:04:56.933Z,2.50
2018-04-10T19:07:23.114Z,4.10
2018-04-10T19:09:49.302Z,3.33
2018-04-10T19:12:16.610Z,0.30
2018-04-10T19:14:42.806Z,0.57
2018-04-10T19:17:09.016Z,4.13
2018-04-10T19:19:35.189Z,0.20
2018-04-10T19:22:01.425Z,2.50
2018-04-10T19:24:27.643Z,3.23
2018-04-10T19:26:53.822Z,0.70
2018-04-10T19:29:21.141Z,2.33
2018-04-10T19:31:47.410Z,1.30
2018-04-10T19:34:13.597Z,1.07
2018-04-10T19:36:40.961Z,0.93
2018-04-10T19:39:07.230Z,3.17
2018-04-10T19:41:33.574Z,1.67
2018-04-10T19:44:00.000Z,2.20
2018-04-10T19:46:26.181Z,1.70
2018-04-10T19:48:52.373Z,0.20
2018-04-10T19:51:29.571Z,1.70
2018-04-10T19:53:55.828Z,2.00
2018-04-10T19:56:22.050Z,0.63
2018-04-10T19:58:48.233Z,1.40
2018-04-10T20:01:17.430Z,1.13
2018-04-10T20:03:44.198Z,0.40
2018-04-10T20:06:12.078Z,0.20
2018-04-10T20:08:42.469Z,2.23
2018-04-10T20:11:09.915Z,1.80
2018-04-10T20:13:36.702Z,2.90
2018-04-10T20:16:02.899Z,3.47
2018-04-10T20:18:29.066Z,2.87
2018-04-10T20:20:55.271Z,0.40
2018-04-10T20:23:21.439Z,4.47
2018-04-10T20:25:47.753Z,0.83
2018-04-10T20:28:15.395Z,3.90
2018-04-10T20:30:55.647Z,4.20
2018-04-10T20:33:22.040Z,3.00
2018-04-10T20:35:48.235Z,3.47
2018-04-10T20:38:15.121Z,3.10
2018-04-10T20:40:41.351Z,1.07
2018-04-10T20:43:08.757Z,2.13
2018-04-10T20:45:35.111Z,1.03
2018-04-10T20:48:14.734Z,5.70
2018-04-10T20:50:42.167Z,4.47
2018-04-10T20:53:08.414Z,1.87
2018-04-10T20:55:34.646Z,2.73
2018-04-10T20:58:01.931Z,1.30
2018-04-10T21:00:28.089Z,3.07
2018-04-10T21:02:54.570Z,0.57
2018-04-10T21:05:20.774Z,1.57
2018-04-10T21:07:47.020Z,1.37
2018-04-10T21:10:13.371Z,0.47
2018-04-10T21:12:39.591Z,1.80
2018-04-10T21:15:05.774Z,3.43
2018-04-10T21:17:33.433Z,0.27
2018-04-10T21:20:00.721Z,1.60
2018-04-10T21:22:26.890Z,0.70
2018-04-10T21:24:54.178Z,2.63
2018-04-10T21:27:20.342Z,1.33
2018-04-10T21:29:46.562Z,1.73
2018-04-10T21:32:12.770Z,1.57
2018-04-10T21:34:40.052Z,3.20
2018-04-10T21:37:06.213Z,1.77
2018-04-10T21:39:33.521Z,2.10
2018-04-10T21:41:59.702Z,1.87
2018-04-10T21:44:25.857Z,2.70
2018-04-10T21:46:52.041Z,1.67
2018-04-10T21:49:18.247Z,2.70
2018-04-10T21:51:44.438Z,3.73
2018-04-10T21:54:10.658Z,1.80
2018-04-10T21:59:33.262Z,3.97
2018-04-10T22:04:33.848Z,4.47
2018-04-10T22:07:00.022Z,6.10
2018-04-10T22:09:26.178Z,4.17
2018-04-10T22:11:52.347Z,3.17
2018-04-10T22:14:18.546Z,5.90
2018-04-10T22:16:44.749Z,2.57
2018-04-10T22:19:10.917Z,2.43
2018-04-10T22:21:37.072Z,2.73
2018-04-10T22:24:04.379Z,6.23
2018-04-10T22:26:30.609Z,4.63
2018-04-10T22:28:56.770Z,3.07
2018-04-10T22:31:22.942Z,4.30
2018-04-10T22:33:50.186Z,2.33
2018-04-10T22:36:16.372Z,1.10
2018-04-10T22:38:42.572Z,1.13
2018-04-10T22:41:09.864Z,2.20
2018-04-10T22:43:36.034Z,3.70
2018-04-10T22:46:03.347Z,3.53
2018-04-10T22:48:29.537Z,4.03
2018-04-10T22:50:55.712Z,2.43
2018-04-10T22:53:21.887Z,1.10
2018-04-10T22:55:48.059Z,1.67
2018-04-10T22:58:14.258Z,7.47
2018-04-10T23:00:48.490Z,6.17
2018-04-10T23:03:14.702Z,1.57
2018-04-10T23:05:40.883Z,3.33
2018-04-10T23:08:07.060Z,4.07
2018-04-10T23:10:33.229Z,3.73
2018-04-10T23:12:59.390Z,2.13
2018-04-10T23:15:25.630Z,1.47
2018-04-10T23:17:52.909Z,1.70
2018-04-10T23:20:19.114Z,1.90
2018-04-10T23:22:45.323Z,1.50
2018-04-10T23:25:11.487Z,1.10
2018-04-10T23:27:37.709Z,1.97
2018-04-10T23:30:03.897Z,1.87
2018-04-10T23:32:30.111Z,0.87
2018-04-10T23:34:56.307Z,1.50
2018-04-10T23:37:22.523Z,6.80
2018-04-10T23:39:48.734Z,1.93
2018-04-10T23:42:14.954Z,2.73
2018-04-10T23:44:41.146Z,3.27
2018-04-10T23:47:07.310Z,1.90
2018-04-10T23:49:33.490Z,2.57
2018-04-10T23:51:59.679Z,1.20
2018-04-10T23:54:26.931Z,2.67
2018-04-10T23:56:53.102Z,2.57
2018-04-10T23:59:19.266Z,2.20
